createdAt,value
2019-02-19T00:04:32.662Z,57.61
2019-02-19T00:09:38.070Z,57.88
2019-02-19T00:14:43.650Z,58.41
2019-02-19T00:19:50.747Z,58.78
2019-02-19T00:24:56.689Z,58.61
2019-02-19T00:30:01.927Z,58.99
2019-02-19T00:35:07.918Z,58.04
2019-02-19T00:40:14.132Z,57.47
2019-02-19T00:45:19.982Z,58.26
2019-02-19T00:50:25.905Z,58.27
2019-02-19T00:55:31.316Z,58.08
2019-02-19T01:00:36.536Z,58.50
2019-02-19T01:05:42.192Z,58.40
2019-02-19T01:10:47.945Z,58.88
2019-02-19T01:15:53.092Z,59.93
2019-02-19T01:20:58.240Z,60.66
2019-02-19T01:26:04.437Z,60.34
2019-02-19T01:31:09.915Z,60.68
2019-02-19T01:36:16.448Z,60.76
2019-02-19T01:41:21.758Z,60.95
2019-02-19T01:46:27.676Z,61.39
2019-02-19T01:51:33.789Z,61.50
2019-02-19T01:56:39.108Z,62.27
2019-02-19T02:01:44.334Z,62.11
2019-02-19T02:06:49.486Z,63.17
2019-02-19T02:11:54.656Z,63.26
2019-02-19T02:16:59.721Z,62.68
2019-02-19T02:22:05.248Z,63.08
2019-02-19T02:27:10.692Z,63.03
2019-02-19T02:32:15.786Z,63.29
2019-02-19T02:37:21.028Z,63.62
2019-02-19T02:42:26.346Z,63.49
2019-02-19T02:47:31.489Z,63.53
2019-02-19T02:52:36.797Z,62.81
2019-02-19T02:57:42.848Z,63.24
2019-02-19T03:02:48.417Z,64.08
2019-02-19T03:07:56.732Z,64.13
2019-02-19T03:13:02.155Z,64.91
2019-02-19T03:18:07.285Z,64.70
2019-02-19T03:23:13.169Z,64.70
2019-02-19T03:28:18.314Z,64.59
2019-02-19T03:33:23.299Z,65.09
2019-02-19T03:38:28.389Z,65.25
2019-02-19T03:43:34.886Z,65.59
2019-02-19T03:48:39.976Z,66.19
2019-02-19T03:53:45.875Z,66.59
2019-02-19T03:58:51.016Z,66.54
2019-02-19T04:03:56.428Z,66.18
2019-02-19T04:09:01.689Z,66.27
2019-02-19T04:14:07.788Z,66.63
2019-02-19T04:19:13.033Z,67.01
2019-02-19T04:24:18.321Z,67.02
2019-02-19T04:29:23.591Z,66.75
2019-02-19T04:34:28.864Z,66.56
2019-02-19T04:39:34.075Z,66.93
2019-02-19T04:44:39.287Z,66.96
2019-02-19T04:49:44.859Z,66.87
2019-02-19T04:54:50.412Z,67.04
2019-02-19T04:59:55.686Z,67.40
2019-02-19T05:05:02.195Z,67.22
2019-02-19T05:10:07.518Z,67.23
2019-02-19T05:15:12.691Z,67.27
2019-02-19T05:20:19.294Z,67.24
2019-02-19T05:25:24.785Z,67.18
2019-02-19T05:30:30.059Z,67.35
2019-02-19T05:35:35.796Z,67.66
2019-02-19T05:40:41.646Z,67.73
2019-02-19T05:45:46.844Z,68.29
2019-02-19T05:50:52.031Z,68.67
2019-02-19T05:55:57.219Z,68.60
2019-02-19T06:01:02.490Z,68.89
2019-02-19T06:06:07.765Z,68.60
2019-02-19T06:11:13.035Z,68.65
2019-02-19T06:16:18.333Z,68.33
2019-02-19T06:21:23.600Z,68.73
2019-02-19T06:26:28.785Z,68.87
2019-02-19T06:31:34.838Z,68.76
2019-02-19T06:36:40.302Z,68.91
2019-02-19T06:41:45.656Z,68.89
2019-02-19T06:46:50.933Z,69.03
2019-02-19T06:51:56.127Z,68.78
2019-02-19T06:57:01.421Z,68.89
2019-02-19T07:02:24.810Z,69.10
2019-02-19T07:07:29.989Z,68.93
2019-02-19T07:12:35.649Z,68.06
2019-02-19T07:17:41.085Z,67.83
2019-02-19T07:22:47.050Z,67.10
2019-02-19T07:27:52.451Z,67.34
2019-02-19T07:32:57.634Z,67.20
2019-02-19T07:38:02.929Z,66.89
2019-02-19T07:43:08.881Z,66.42
2019-02-19T07:48:15.534Z,67.13
2019-02-19T07:53:20.802Z,66.89
2019-02-19T07:58:26.803Z,66.51
2019-02-19T08:03:32.368Z,65.54
2019-02-19T08:08:38.211Z,66.01
2019-02-19T08:13:43.480Z,66.45
2019-02-19T08:18:48.745Z,65.77
2019-02-19T08:23:54.418Z,65.96
2019-02-19T08:29:13.097Z,65.84
2019-02-19T08:34:09.087Z,66.04
2019-02-19T08:39:14.695Z,65.69
2019-02-19T08:44:20.165Z,65.14
2019-02-19T08:49:26.191Z,65.11
2019-02-19T08:54:32.854Z,65.21
2019-02-19T08:59:38.503Z,65.18
2019-02-19T09:04:44.480Z,65.34
2019-02-19T09:09:49.756Z,65.35
2019-02-19T09:14:55.009Z,65.19
2019-02-19T09:25:05.512Z,65.16
2019-02-19T09:30:12.690Z,65.02
2019-02-19T09:35:20.661Z,64.79
2019-02-19T09:40:26.039Z,64.87
2019-02-19T09:45:31.423Z,64.58
2019-02-19T09:50:37.689Z,64.43
2019-02-19T09:55:44.014Z,64.01
2019-02-19T10:00:49.994Z,64.08
2019-02-19T10:05:55.249Z,64.06
2019-02-19T10:11:00.514Z,65.36
2019-02-19T10:16:06.258Z,65.36
2019-02-19T10:21:11.845Z,64.61
2019-02-19T10:26:17.772Z,65.59
2019-02-19T10:31:23.777Z,65.82
2019-02-19T10:36:29.079Z,67.50
2019-02-19T10:41:34.461Z,67.57
2019-02-19T10:46:39.734Z,67.58
2019-02-19T10:51:45.333Z,67.98
2019-02-19T10:56:50.989Z,68.85
2019-02-19T11:01:56.263Z,69.42
2019-02-19T11:07:02.573Z,70.70
2019-02-19T11:12:07.848Z,71.19
2019-02-19T11:17:13.993Z,70.64
2019-02-19T11:22:19.272Z,72.59
2019-02-19T11:27:25.206Z,73.08
2019-02-19T11:32:30.906Z,74.42
2019-02-19T11:37:37.414Z,73.69
2019-02-19T11:42:42.861Z,73.88
2019-02-19T11:47:48.485Z,75.77
2019-02-19T11:52:54.759Z,75.99
2019-02-19T11:58:00.319Z,76.30
2019-02-19T12:03:05.591Z,77.59
2019-02-19T12:08:10.866Z,77.11
2019-02-19T12:13:16.553Z,78.24
2019-02-19T12:18:22.078Z,79.40
2019-02-19T12:23:27.831Z,79.11
2019-02-19T12:28:33.242Z,79.49
2019-02-19T12:33:38.850Z,79.41
2019-02-19T12:38:44.170Z,78.58
2019-02-19T12:43:51.019Z,78.09
2019-02-19T12:48:56.365Z,77.47
2019-02-19T12:54:01.655Z,77.70
2019-02-19T12:59:06.926Z,75.77
2019-02-19T13:04:12.182Z,75.31
2019-02-19T13:09:18.657Z,74.65
2019-02-19T13:14:24.249Z,73.38
2019-02-19T13:19:29.509Z,75.30
2019-02-19T13:24:35.064Z,74.41
2019-02-19T13:29:41.673Z,75.22
2019-02-19T13:34:46.944Z,74.56
2019-02-19T13:39:52.251Z,74.78
2019-02-19T13:44:57.803Z,73.83
2019-02-19T13:50:03.451Z,72.58
2019-02-19T13:55:18.529Z,73.31
2019-02-19T14:00:24.670Z,72.82
2019-02-19T14:05:29.943Z,72.73
2019-02-19T14:10:36.307Z,71.87
2019-02-19T14:16:00.750Z,72.28
2019-02-19T14:21:37.197Z,71.03
2019-02-19T14:27:00.706Z,71.24
2019-02-19T14:32:44.134Z,71.90
2019-02-19T14:38:11.744Z,71.94
2019-02-19T14:43:35.987Z,67.38
2019-02-19T14:48:59.641Z,64.36
2019-02-19T14:54:24.962Z,63.11
2019-02-19T14:59:48.272Z,61.52
2019-02-19T15:05:12.479Z,62.05
2019-02-19T15:10:33.235Z,64.30
2019-02-19T15:15:57.490Z,62.47
2019-02-19T15:21:12.128Z,62.80
2019-02-19T15:26:43.508Z,63.30
2019-02-19T15:32:13.805Z,64.56
2019-02-19T15:37:36.969Z,65.34
2019-02-19T15:43:01.219Z,64.48
2019-02-19T15:48:24.415Z,65.57
2019-02-19T15:53:52.000Z,66.43
2019-02-19T15:59:12.096Z,66.04
2019-02-19T16:04:36.191Z,65.99
2019-02-19T16:10:06.708Z,67.86
2019-02-19T16:15:31.046Z,67.06
2019-02-19T16:20:55.132Z,66.61
2019-02-19T16:26:23.885Z,65.91
2019-02-19T16:32:00.592Z,66.29
2019-02-19T16:37:31.217Z,67.73
2019-02-19T16:43:01.463Z,68.15
2019-02-19T16:48:35.461Z,69.79
2019-02-19T16:53:51.300Z,68.94
2019-02-19T16:59:08.022Z,70.13
2019-02-19T17:04:38.466Z,70.69
2019-02-19T17:09:54.233Z,71.36
2019-02-19T17:15:27.450Z,72.57
2019-02-19T17:20:50.743Z,73.04
2019-02-19T17:26:08.073Z,72.98
2019-02-19T17:31:32.603Z,72.66
2019-02-19T17:36:43.667Z,73.64
2019-02-19T17:41:54.360Z,74.25
2019-02-19T17:47:18.529Z,74.54
2019-02-19T17:52:41.694Z,74.45
2019-02-19T17:57:56.853Z,74.14
2019-02-19T18:03:14.150Z,75.00
2019-02-19T18:08:36.709Z,74.83
2019-02-19T18:13:58.874Z,75.12
2019-02-19T18:19:04.420Z,75.24
2019-02-19T18:24:09.812Z,75.43
2019-02-19T18:29:15.082Z,75.65
2019-02-19T18:34:20.265Z,75.62
2019-02-19T18:39:26.511Z,76.06
2019-02-19T18:44:32.056Z,76.91
2019-02-19T18:49:37.453Z,77.20
2019-02-19T18:54:42.738Z,77.36
2019-02-19T18:59:49.089Z,77.50
2019-02-19T19:04:54.356Z,77.34
2019-02-19T19:09:59.964Z,77.80
2019-02-19T19:15:07.007Z,78.19
2019-02-19T19:20:13.816Z,78.53
2019-02-19T19:25:19.116Z,78.64
2019-02-19T19:30:24.376Z,79.07
2019-02-19T19:35:29.957Z,79.64
2019-02-19T19:40:38.250Z,80.43
2019-02-19T19:45:43.675Z,79.92
2019-02-19T19:50:48.865Z,79.98
2019-02-19T19:55:54.592Z,80.08
2019-02-19T20:00:59.792Z,80.38
2019-02-19T20:06:04.986Z,80.55
2019-02-19T20:11:10.237Z,80.42
2019-02-19T20:16:15.863Z,80.72
2019-02-19T20:21:26.811Z,81.23
2019-02-19T20:26:28.371Z,81.63
2019-02-19T20:31:33.889Z,81.78
2019-02-19T20:36:39.096Z,81.29
2019-02-19T20:41:45.724Z,80.42
2019-02-19T20:46:51.286Z,79.08
2019-02-19T20:51:56.497Z,78.15
2019-02-19T20:57:02.470Z,77.73
2019-02-19T21:02:07.703Z,77.07
2019-02-19T21:07:12.970Z,77.03
2019-02-19T21:12:19.296Z,77.09
2019-02-19T21:17:24.486Z,77.29
2019-02-19T21:22:29.666Z,76.69
2019-02-19T21:27:34.940Z,77.00
2019-02-19T21:32:40.522Z,77.10
2019-02-19T21:37:46.722Z,77.26
2019-02-19T21:42:51.916Z,77.68
2019-02-19T21:47:57.184Z,78.09
2019-02-19T21:53:03.588Z,78.76
2019-02-19T21:58:08.777Z,79.75
2019-02-19T22:03:14.419Z,80.61
2019-02-19T22:08:19.747Z,80.88
2019-02-19T22:13:24.941Z,81.26
2019-02-19T22:18:31.249Z,81.41
2019-02-19T22:23:38.337Z,81.67
2019-02-19T22:28:44.952Z,82.35
2019-02-19T22:33:50.146Z,82.39
2019-02-19T22:38:55.672Z,82.02
2019-02-19T22:44:01.734Z,82.47
2019-02-19T22:49:06.973Z,82.64
2019-02-19T22:54:17.946Z,82.70
2019-02-19T22:59:23.506Z,82.81
2019-02-19T23:04:28.737Z,83.31
2019-02-19T23:09:33.966Z,83.78
2019-02-19T23:14:40.010Z,84.02
2019-02-19T23:19:45.268Z,83.69
2019-02-19T23:24:51.189Z,83.62
2019-02-19T23:29:56.399Z,83.74
2019-02-19T23:35:29.678Z,84.10
2019-02-19T23:40:35.133Z,84.16
2019-02-19T23:45:40.871Z,84.34
2019-02-19T23:50:46.124Z,84.87
2019-02-19T23:55:51.308Z,84.62
